Aérodrome :
LOGIN :

S'inscrire | Disclaimer

   EN    FR    IT 

 










Légende :    VFR   VFR Marginal   IFR   IFR Intensif   IFR Très Intensif
Visi : 
Plafond : 
>= 8 km
>= 3000ft
5 à 8 km
1000 à 3000 ft
1500m à 5 km
500 à 1000 ft
800 à 1500m
200 à 500 ft
< 800m
< 200 ft
Symboles :   Orages  Brouillard  Fortes neiges  Fortes précipitations  Vent > 20 kt
SIGMETs :   Divers  Orages  Givrage  Turbulence  Onde Orograph.  Cendres Volcan.






- Altitude de l'aérodrome : 1548 ft


LKNA - Náměšť Air Base

DERNIER METAR :
  • 062100Z 14006KT 0200 R31/0650D FZFG OVC001 M03/M04 Q1016 RMK RED

METARs EXPIRÉS :
  • 062000Z 17006KT 0200 R31/1000U FZFG OVC001 M03/M04 Q1016 NOSIG RMK RED RED
  • 061900Z 15007KT 0200 R31/0900D FZFG OVC001 M03/M04 Q1017 NOSIG RMK RED RED

TAF TAF LKNA
Valide du 06 à 18h jusqu'au 07 à 18h UTC


061700Z 0618/0718 16008KT 0600 FZFG OVC002
BECMG 0705/0707 23012KT
TEMPO 0705/0708 1500 FZRA BR OVC004
BECMG 0706/0708 23015G25KT 2500 BR OVC008
BECMG 0708/0710 BKN025



MET'MAP, la Météo Aéronautique d'un coup d'oeil ! - Copyright ORBIFLY Décembre 2007 - Disclaimer

ORBIFLY MET'MAP TEAM :

Programmation & Développement : Alexandra Zaïnal
Sur une idée originale de : Baudouin d'Aumeries
Assistance à la programmation : Marc-Olivier Méhu
Soutien technique & logistique : Manuel Goepfert

Contact : metmap@orbifly.com




SOURCES & CREDITS :

   NOAA